sensor_id;sensor_type;location;lat;lon;timestamp;pressure;altitude;pressure_sealevel;temperature;humidity
56006;BME280;41888;44.696;10.522;2023-04-15T00:00:31;99353.03;;;8.78;60.57
56006;BME280;41888;44.696;10.522;2023-04-15T00:02:59;99347.75;;;8.78;62.77
56006;BME280;41888;44.696;10.522;2023-04-15T00:05:30;99349.22;;;8.74;63.14
56006;BME280;41888;44.696;10.522;2023-04-15T00:07:56;99347.44;;;8.68;65.84
56006;BME280;41888;44.696;10.522;2023-04-15T00:10:24;99343.91;;;8.74;62.25
56006;BME280;41888;44.696;10.522;2023-04-15T00:12:50;99348.91;;;8.64;62.10
56006;BME280;41888;44.696;10.522;2023-04-15T00:15:17;99343.34;;;8.72;65.05
56006;BME280;41888;44.696;10.522;2023-04-15T00:17:43;99337.84;;;8.67;63.35
56006;BME280;41888;44.696;10.522;2023-04-15T00:20:10;99340.53;;;8.42;63.97
56006;BME280;41888;44.696;10.522;2023-04-15T00:22:36;99343.97;;;8.18;68.80
56006;BME280;41888;44.696;10.522;2023-04-15T00:25:02;99346.63;;;8.18;72.60
56006;BME280;41888;44.696;10.522;2023-04-15T00:27:28;99339.56;;;8.37;66.98
56006;BME280;41888;44.696;10.522;2023-04-15T00:29:55;99349.00;;;8.26;66.00
56006;BME280;41888;44.696;10.522;2023-04-15T00:32:22;99333.22;;;8.38;64.99
56006;BME280;41888;44.696;10.522;2023-04-15T00:34:48;99340.00;;;8.34;64.83
56006;BME280;41888;44.696;10.522;2023-04-15T00:37:15;99333.41;;;8.43;66.30
56006;BME280;41888;44.696;10.522;2023-04-15T00:39:41;99337.78;;;8.31;67.60
56006;BME280;41888;44.696;10.522;2023-04-15T00:42:07;99331.03;;;8.35;66.04
56006;BME280;41888;44.696;10.522;2023-04-15T00:44:33;99328.28;;;8.17;69.59
56006;BME280;41888;44.696;10.522;2023-04-15T00:47:00;99325.34;;;8.31;67.01
56006;BME280;41888;44.696;10.522;2023-04-15T00:49:30;99333.69;;;8.28;69.00
56006;BME280;41888;44.696;10.522;2023-04-15T00:51:57;99335.69;;;8.08;71.12
56006;BME280;41888;44.696;10.522;2023-04-15T00:54:23;99331.22;;;8.09;69.77
56006;BME280;41888;44.696;10.522;2023-04-15T00:56:49;99334.97;;;7.94;71.88
56006;BME280;41888;44.696;10.522;2023-04-15T00:59:17;99317.34;;;7.82;70.78
56006;BME280;41888;44.696;10.522;2023-04-15T01:01:44;99329.19;;;7.73;71.41
56006;BME280;41888;44.696;10.522;2023-04-15T01:04:10;99329.41;;;7.71;73.69
56006;BME280;41888;44.696;10.522;2023-04-15T01:06:37;99334.97;;;7.56;72.76
56006;BME280;41888;44.696;10.522;2023-04-15T01:09:03;99332.22;;;7.45;76.25
56006;BME280;41888;44.696;10.522;2023-04-15T01:11:31;99336.56;;;7.19;77.83
56006;BME280;41888;44.696;10.522;2023-04-15T01:13:59;99334.19;;;6.98;81.15
56006;BME280;41888;44.696;10.522;2023-04-15T01:16:26;99332.00;;;6.89;81.27
56006;BME280;41888;44.696;10.522;2023-04-15T01:18:53;99335.25;;;6.91;82.59
56006;BME280;41888;44.696;10.522;2023-04-15T01:21:20;99335.31;;;6.71;87.01
56006;BME280;41888;44.696;10.522;2023-04-15T01:23:47;99338.53;;;6.73;85.84
56006;BME280;41888;44.696;10.522;2023-04-15T01:26:14;99340.34;;;6.79;84.58
56006;BME280;41888;44.696;10.522;2023-04-15T01:28:41;99339.16;;;6.75;87.35
56006;BME280;41888;44.696;10.522;2023-04-15T01:31:12;99341.16;;;6.79;84.79
56006;BME280;41888;44.696;10.522;2023-04-15T01:33:39;99344.25;;;6.76;83.34
56006;BME280;41888;44.696;10.522;2023-04-15T01:36:07;99342.19;;;6.78;87.23
56006;BME280;41888;44.696;10.522;2023-04-15T01:38:34;99336.31;;;6.76;82.05
56006;BME280;41888;44.696;10.522;2023-04-15T01:41:01;99337.72;;;6.79;85.87
56006;BME280;41888;44.696;10.522;2023-04-15T01:43:27;99330.84;;;6.52;90.45
56006;BME280;41888;44.696;10.522;2023-04-15T01:45:54;99329.63;;;6.41;90.37
56006;BME280;41888;44.696;10.522;2023-04-15T01:48:21;99327.56;;;6.56;84.58
56006;BME280;41888;44.696;10.522;2023-04-15T01:50:47;99325.94;;;6.62;84.57
56006;BME280;41888;44.696;10.522;2023-04-15T01:53:13;99318.44;;;6.65;84.95
56006;BME280;41888;44.696;10.522;2023-04-15T01:55:40;99328.81;;;6.54;86.70
56006;BME280;41888;44.696;10.522;2023-04-15T01:58:06;99322.91;;;6.52;85.05
56006;BME280;41888;44.696;10.522;2023-04-15T02:00:33;99328.84;;;6.27;87.98
56006;BME280;41888;44.696;10.522;2023-04-15T02:02:59;99328.66;;;6.29;84.41
56006;BME280;41888;44.696;10.522;2023-04-15T02:05:25;99330.84;;;6.52;81.77
56006;BME280;41888;44.696;10.522;2023-04-15T02:07:52;99319.66;;;6.63;79.94
56006;BME280;41888;44.696;10.522;2023-04-15T02:10:19;99319.06;;;6.54;81.08
56006;BME280;41888;44.696;10.522;2023-04-15T02:12:45;99316.63;;;6.46;81.21
56006;BME280;41888;44.696;10.522;2023-04-15T02:15:11;99319.47;;;6.58;80.29
56006;BME280;41888;44.696;10.522;2023-04-15T02:17:38;99313.34;;;6.51;83.54
56006;BME280;41888;44.696;10.522;2023-04-15T02:20:04;99320.69;;;6.35;83.73
56006;BME280;41888;44.696;10.522;2023-04-15T02:22:31;99317.25;;;6.22;80.43
56006;BME280;41888;44.696;10.522;2023-04-15T02:24:57;99317.66;;;6.25;83.45
56006;BME280;41888;44.696;10.522;2023-04-15T02:27:24;99318.28;;;6.01;87.56
56006;BME280;41888;44.696;10.522;2023-04-15T02:29:50;99324.16;;;6.29;82.94
56006;BME280;41888;44.696;10.522;2023-04-15T02:32:16;99320.31;;;6.39;79.45
56006;BME280;41888;44.696;10.522;2023-04-15T02:34:42;99322.31;;;6.43;78.65
56006;BME280;41888;44.696;10.522;2023-04-15T02:37:09;99319.47;;;6.58;74.30
56006;BME280;41888;44.696;10.522;2023-04-15T02:39:36;99328.97;;;6.72;75.54
56006;BME280;41888;44.696;10.522;2023-04-15T02:42:03;99328.34;;;6.90;72.94
56006;BME280;41888;44.696;10.522;2023-04-15T02:44:31;99316.84;;;7.15;70.19
56006;BME280;41888;44.696;10.522;2023-04-15T02:46:57;99316.59;;;7.30;68.86
56006;BME280;41888;44.696;10.522;2023-04-15T02:49:24;99326.31;;;7.36;67.25
56006;BME280;41888;44.696;10.522;2023-04-15T02:51:50;99317.09;;;7.52;66.21
56006;BME280;41888;44.696;10.522;2023-04-15T02:54:17;99312.94;;;7.69;64.86
56006;BME280;41888;44.696;10.522;2023-04-15T02:56:45;99321.81;;;7.81;64.25
56006;BME280;41888;44.696;10.522;2023-04-15T02:59:12;99312.41;;;7.85;63.65
56006;BME280;41888;44.696;10.522;2023-04-15T03:01:38;99317.56;;;8.05;62.47
56006;BME280;41888;44.696;10.522;2023-04-15T03:04:04;99327.69;;;8.15;62.24
56006;BME280;41888;44.696;10.522;2023-04-15T03:06:32;99329.31;;;8.16;62.02
56006;BME280;41888;44.696;10.522;2023-04-15T03:08:58;99326.81;;;8.21;62.24
56006;BME280;41888;44.696;10.522;2023-04-15T03:11:25;99329.25;;;8.22;62.24
56006;BME280;41888;44.696;10.522;2023-04-15T03:13:54;99324.03;;;8.09;62.56
56006;BME280;41888;44.696;10.522;2023-04-15T03:16:20;99321.31;;;7.97;64.70
56006;BME280;41888;44.696;10.522;2023-04-15T03:18:47;99328.19;;;7.98;64.95
56006;BME280;41888;44.696;10.522;2023-04-15T03:21:13;99327.75;;;8.08;63.61
56006;BME280;41888;44.696;10.522;2023-04-15T03:23:39;99326.66;;;8.16;62.98
56006;BME280;41888;44.696;10.522;2023-04-15T03:26:05;99339.22;;;8.27;62.36
56006;BME280;41888;44.696;10.522;2023-04-15T03:28:31;99336.22;;;7.92;65.42
56006;BME280;41888;44.696;10.522;2023-04-15T03:30:58;99330.00;;;7.73;67.25
56006;BME280;41888;44.696;10.522;2023-04-15T03:33:24;99339.03;;;7.66;67.64
56006;BME280;41888;44.696;10.522;2023-04-15T03:35:51;99329.97;;;7.80;66.96
56006;BME280;41888;44.696;10.522;2023-04-15T03:38:18;99327.00;;;7.63;68.71
56006;BME280;41888;44.696;10.522;2023-04-15T03:40:45;99331.78;;;7.48;68.99
56006;BME280;41888;44.696;10.522;2023-04-15T03:43:12;99328.59;;;7.33;72.55
56006;BME280;41888;44.696;10.522;2023-04-15T03:45:38;99334.59;;;7.53;68.69
56006;BME280;41888;44.696;10.522;2023-04-15T03:48:04;99331.16;;;7.46;71.86
56006;BME280;41888;44.696;10.522;2023-04-15T03:50:31;99333.16;;;7.12;76.28
56006;BME280;41888;44.696;10.522;2023-04-15T03:52:57;99336.06;;;6.98;76.88
56006;BME280;41888;44.696;10.522;2023-04-15T03:55:23;99334.75;;;7.20;73.20
56006;BME280;41888;44.696;10.522;2023-04-15T03:57:50;99332.69;;;7.29;73.40
56006;BME280;41888;44.696;10.522;2023-04-15T04:00:16;99333.16;;;7.12;75.67
56006;BME280;41888;44.696;10.522;2023-04-15T04:02:42;99338.47;;;6.99;80.63
56006;BME280;41888;44.696;10.522;2023-04-15T04:05:08;99349.53;;;6.70;85.26
56006;BME280;41888;44.696;10.522;2023-04-15T04:07:35;99351.00;;;6.40;89.02
56006;BME280;41888;44.696;10.522;2023-04-15T04:10:02;99347.31;;;6.01;89.80
56006;BME280;41888;44.696;10.522;2023-04-15T04:12:28;99355.56;;;5.85;91.58
56006;BME280;41888;44.696;10.522;2023-04-15T04:14:54;99360.31;;;5.96;92.19
56006;BME280;41888;44.696;10.522;2023-04-15T04:17:21;99364.75;;;5.89;91.34
56006;BME280;41888;44.696;10.522;2023-04-15T04:19:47;99365.72;;;5.75;92.12
56006;BME280;41888;44.696;10.522;2023-04-15T04:22:13;99365.38;;;5.91;92.37
56006;BME280;41888;44.696;10.522;2023-04-15T04:24:39;99371.03;;;5.88;91.73
56006;BME280;41888;44.696;10.522;2023-04-15T04:27:05;99374.44;;;5.75;93.18
56006;BME280;41888;44.696;10.522;2023-04-15T04:29:32;99375.88;;;5.84;92.90
56006;BME280;41888;44.696;10.522;2023-04-15T04:31:58;99384.66;;;5.91;92.39
56006;BME280;41888;44.696;10.522;2023-04-15T04:34:24;99391.50;;;5.79;93.77
56006;BME280;41888;44.696;10.522;2023-04-15T04:36:50;99383.41;;;5.81;94.02
56006;BME280;41888;44.696;10.522;2023-04-15T04:39:16;99397.69;;;6.19;94.39
56006;BME280;41888;44.696;10.522;2023-04-15T04:41:44;99394.63;;;6.09;96.28
56006;BME280;41888;44.696;10.522;2023-04-15T04:44:10;99401.53;;;5.97;96.77
56006;BME280;41888;44.696;10.522;2023-04-15T04:46:36;99400.72;;;5.97;96.34
56006;BME280;41888;44.696;10.522;2023-04-15T04:49:02;99407.19;;;5.94;97.31
56006;BME280;41888;44.696;10.522;2023-04-15T04:51:28;99405.56;;;5.93;98.34
56006;BME280;41888;44.696;10.522;2023-04-15T04:53:54;99407.63;;;6.04;97.58
56006;BME280;41888;44.696;10.522;2023-04-15T04:56:22;99404.38;;;6.02;98.35
56006;BME280;41888;44.696;10.522;2023-04-15T04:58:48;99400.94;;;6.02;99.29
56006;BME280;41888;44.696;10.522;2023-04-15T05:01:14;99415.16;;;6.20;97.90
56006;BME280;41888;44.696;10.522;2023-04-15T05:03:40;99417.41;;;6.30;96.84
56006;BME280;41888;44.696;10.522;2023-04-15T05:06:06;99425.56;;;6.48;93.82
56006;BME280;41888;44.696;10.522;2023-04-15T05:08:33;99424.56;;;6.43;92.86
56006;BME280;41888;44.696;10.522;2023-04-15T05:11:00;99427.78;;;6.31;94.53
56006;BME280;41888;44.696;10.522;2023-04-15T05:13:26;99426.34;;;6.16;96.59
56006;BME280;41888;44.696;10.522;2023-04-15T05:15:52;99426.50;;;5.94;98.58
56006;BME280;41888;44.696;10.522;2023-04-15T05:18:18;99426.75;;;6.19;98.40
56006;BME280;41888;44.696;10.522;2023-04-15T05:20:45;99432.91;;;6.40;96.60
56006;BME280;41888;44.696;10.522;2023-04-15T05:23:11;99435.94;;;6.76;95.17
56006;BME280;41888;44.696;10.522;2023-04-15T05:25:38;99449.72;;;7.24;90.74
56006;BME280;41888;44.696;10.522;2023-04-15T05:28:04;99442.69;;;8.07;84.19
56006;BME280;41888;44.696;10.522;2023-04-15T05:30:31;99453.81;;;8.16;82.82
56006;BME280;41888;44.696;10.522;2023-04-15T05:32:57;99445.88;;;8.16;82.67
56006;BME280;41888;44.696;10.522;2023-04-15T05:35:24;99444.06;;;8.47;80.80
56006;BME280;41888;44.696;10.522;2023-04-15T05:37:50;99438.53;;;9.23;77.37
56006;BME280;41888;44.696;10.522;2023-04-15T05:40:16;99442.00;;;10.38;71.20
56006;BME280;41888;44.696;10.522;2023-04-15T05:42:42;99448.41;;;11.77;64.21
56006;BME280;41888;44.696;10.522;2023-04-15T05:45:09;99465.06;;;13.79;56.31
56006;BME280;41888;44.696;10.522;2023-04-15T05:47:35;99461.22;;;15.04;51.88
56006;BME280;41888;44.696;10.522;2023-04-15T05:50:03;99465.75;;;15.93;48.89
56006;BME280;41888;44.696;10.522;2023-04-15T05:52:30;99468.38;;;17.01;46.60
56006;BME280;41888;44.696;10.522;2023-04-15T05:54:56;99470.97;;;17.61;43.98
56006;BME280;41888;44.696;10.522;2023-04-15T05:57:22;99473.94;;;18.68;41.76
56006;BME280;41888;44.696;10.522;2023-04-15T05:59:48;99475.94;;;18.47;41.87
56006;BME280;41888;44.696;10.522;2023-04-15T06:02:17;99471.31;;;18.58;41.05
56006;BME280;41888;44.696;10.522;2023-04-15T06:04:43;99469.19;;;17.01;45.00
56006;BME280;41888;44.696;10.522;2023-04-15T06:07:09;99479.22;;;17.85;44.19
56006;BME280;41888;44.696;10.522;2023-04-15T06:09:36;99471.19;;;17.80;44.48
56006;BME280;41888;44.696;10.522;2023-04-15T06:12:02;99470.63;;;18.37;42.75
56006;BME280;41888;44.696;10.522;2023-04-15T06:14:28;99462.22;;;18.83;41.93
56006;BME280;41888;44.696;10.522;2023-04-15T06:16:54;99481.97;;;20.31;39.58
56006;BME280;41888;44.696;10.522;2023-04-15T06:19:21;99477.09;;;21.63;37.04
56006;BME280;41888;44.696;10.522;2023-04-15T06:21:47;99481.34;;;20.90;37.21
56006;BME280;41888;44.696;10.522;2023-04-15T06:24:13;99483.16;;;20.01;38.29
56006;BME280;41888;44.696;10.522;2023-04-15T06:26:39;99479.44;;;21.10;37.70
56006;BME280;41888;44.696;10.522;2023-04-15T06:29:06;99470.41;;;21.46;36.91
56006;BME280;41888;44.696;10.522;2023-04-15T06:31:32;99487.22;;;22.97;34.33
56006;BME280;41888;44.696;10.522;2023-04-15T06:33:58;99492.16;;;22.59;34.60
56006;BME280;41888;44.696;10.522;2023-04-15T06:36:24;99494.28;;;23.60;33.90
56006;BME280;41888;44.696;10.522;2023-04-15T06:38:51;99497.38;;;24.24;33.02
56006;BME280;41888;44.696;10.522;2023-04-15T06:41:17;99485.91;;;23.48;32.95
56006;BME280;41888;44.696;10.522;2023-04-15T06:43:43;99495.16;;;24.60;32.10
56006;BME280;41888;44.696;10.522;2023-04-15T06:46:09;99489.28;;;23.53;32.81
56006;BME280;41888;44.696;10.522;2023-04-15T06:48:36;99491.22;;;22.42;34.73
56006;BME280;41888;44.696;10.522;2023-04-15T06:51:03;99487.81;;;21.08;37.08
56006;BME280;41888;44.696;10.522;2023-04-15T06:53:29;99493.59;;;20.50;37.58
56006;BME280;41888;44.696;10.522;2023-04-15T06:55:55;99489.50;;;19.10;38.74
56006;BME280;41888;44.696;10.522;2023-04-15T06:58:22;99489.09;;;18.93;41.78
56006;BME280;41888;44.696;10.522;2023-04-15T07:00:48;99481.22;;;18.24;44.83
56006;BME280;41888;44.696;10.522;2023-04-15T07:03:14;99480.41;;;17.49;46.76
56006;BME280;41888;44.696;10.522;2023-04-15T07:05:40;99489.88;;;17.01;48.99
56006;BME280;41888;44.696;10.522;2023-04-15T07:08:07;99479.13;;;16.75;50.10
56006;BME280;41888;44.696;10.522;2023-04-15T07:10:34;99482.00;;;16.33;49.35
56006;BME280;41888;44.696;10.522;2023-04-15T07:13:00;99485.72;;;16.22;49.13
56006;BME280;41888;44.696;10.522;2023-04-15T07:15:26;99485.13;;;16.10;49.86
56006;BME280;41888;44.696;10.522;2023-04-15T07:17:53;99476.69;;;15.81;50.75
56006;BME280;41888;44.696;10.522;2023-04-15T07:20:19;99482.09;;;15.44;49.77
56006;BME280;41888;44.696;10.522;2023-04-15T07:22:45;99474.66;;;15.09;50.12
56006;BME280;41888;44.696;10.522;2023-04-15T07:25:11;99478.03;;;14.63;54.81
56006;BME280;41888;44.696;10.522;2023-04-15T07:27:38;99477.78;;;14.38;57.13
56006;BME280;41888;44.696;10.522;2023-04-15T07:30:04;99477.06;;;14.47;58.29
56006;BME280;41888;44.696;10.522;2023-04-15T07:32:31;99478.75;;;14.85;55.40
56006;BME280;41888;44.696;10.522;2023-04-15T07:34:57;99488.19;;;14.93;54.05
56006;BME280;41888;44.696;10.522;2023-04-15T07:37:23;99492.44;;;14.89;54.27
56006;BME280;41888;44.696;10.522;2023-04-15T07:39:50;99487.75;;;15.06;55.14
56006;BME280;41888;44.696;10.522;2023-04-15T07:42:16;99491.78;;;14.76;56.56
56006;BME280;41888;44.696;10.522;2023-04-15T07:44:42;99493.22;;;14.57;59.89
56006;BME280;41888;44.696;10.522;2023-04-15T07:47:08;99498.72;;;14.46;62.38
56006;BME280;41888;44.696;10.522;2023-04-15T07:49:34;99500.53;;;14.40;63.18
56006;BME280;41888;44.696;10.522;2023-04-15T07:52:00;99499.03;;;14.01;63.69
56006;BME280;41888;44.696;10.522;2023-04-15T07:54:26;99499.84;;;14.28;63.27
56006;BME280;41888;44.696;10.522;2023-04-15T07:56:52;99492.63;;;14.50;63.10
56006;BME280;41888;44.696;10.522;2023-04-15T07:59:19;99498.31;;;14.32;61.10
56006;BME280;41888;44.696;10.522;2023-04-15T08:01:45;99496.31;;;14.22;60.82
56006;BME280;41888;44.696;10.522;2023-04-15T08:04:11;99492.97;;;14.10;61.65
56006;BME280;41888;44.696;10.522;2023-04-15T08:06:38;99488.91;;;14.08;63.35
56006;BME280;41888;44.696;10.522;2023-04-15T08:09:05;99484.25;;;14.42;61.01
56006;BME280;41888;44.696;10.522;2023-04-15T08:11:33;99486.59;;;14.65;60.61
56006;BME280;41888;44.696;10.522;2023-04-15T08:13:59;99490.69;;;14.72;60.15
56006;BME280;41888;44.696;10.522;2023-04-15T08:16:26;99485.22;;;14.89;59.67
56006;BME280;41888;44.696;10.522;2023-04-15T08:18:54;99487.38;;;14.92;58.93
56006;BME280;41888;44.696;10.522;2023-04-15T08:21:21;99478.47;;;14.55;60.17
56006;BME280;41888;44.696;10.522;2023-04-15T08:23:48;99483.44;;;14.41;62.86
56006;BME280;41888;44.696;10.522;2023-04-15T08:26:15;99471.78;;;14.30;61.25
56006;BME280;41888;44.696;10.522;2023-04-15T08:28:44;99479.28;;;14.55;62.15
56006;BME280;41888;44.696;10.522;2023-04-15T08:31:10;99482.28;;;14.59;60.65
56006;BME280;41888;44.696;10.522;2023-04-15T08:33:37;99486.16;;;14.24;59.71
56006;BME280;41888;44.696;10.522;2023-04-15T08:36:04;99487.53;;;14.27;61.77
56006;BME280;41888;44.696;10.522;2023-04-15T08:38:31;99481.84;;;14.72;59.85
56006;BME280;41888;44.696;10.522;2023-04-15T08:40:59;99491.19;;;14.96;57.70
56006;BME280;41888;44.696;10.522;2023-04-15T08:43:31;99485.59;;;15.03;57.91
56006;BME280;41888;44.696;10.522;2023-04-15T08:45:59;99489.75;;;15.20;60.04
56006;BME280;41888;44.696;10.522;2023-04-15T08:48:29;99481.81;;;14.99;61.34
56006;BME280;41888;44.696;10.522;2023-04-15T08:50:57;99491.69;;;15.30;59.48
56006;BME280;41888;44.696;10.522;2023-04-15T08:53:24;99494.00;;;15.53;59.82
56006;BME280;41888;44.696;10.522;2023-04-15T08:55:52;99486.97;;;15.47;57.51
56006;BME280;41888;44.696;10.522;2023-04-15T08:58:20;99476.94;;;15.28;59.16
56006;BME280;41888;44.696;10.522;2023-04-15T09:00:47;99474.69;;;15.14;58.97
56006;BME280;41888;44.696;10.522;2023-04-15T09:03:14;99472.69;;;14.95;60.79
56006;BME280;41888;44.696;10.522;2023-04-15T09:05:42;99480.69;;;15.27;61.69
56006;BME280;41888;44.696;10.522;2023-04-15T09:08:09;99487.97;;;15.36;59.11
56006;BME280;41888;44.696;10.522;2023-04-15T09:10:36;99483.59;;;15.67;58.32
56006;BME280;41888;44.696;10.522;2023-04-15T09:13:02;99481.97;;;15.61;58.27
56006;BME280;41888;44.696;10.522;2023-04-15T09:15:29;99485.91;;;16.00;57.54
56006;BME280;41888;44.696;10.522;2023-04-15T09:17:58;99486.75;;;16.06;54.67
56006;BME280;41888;44.696;10.522;2023-04-15T09:20:24;99482.72;;;16.14;54.68
56006;BME280;41888;44.696;10.522;2023-04-15T09:22:50;99483.28;;;16.21;55.77
56006;BME280;41888;44.696;10.522;2023-04-15T09:27:58;99485.19;;;16.30;56.49
56006;BME280;41888;44.696;10.522;2023-04-15T09:30:24;99485.91;;;16.00;57.34
56006;BME280;41888;44.696;10.522;2023-04-15T09:32:54;99481.41;;;16.16;57.50
56006;BME280;41888;44.696;10.522;2023-04-15T09:35:22;99476.56;;;16.23;55.62
56006;BME280;41888;44.696;10.522;2023-04-15T09:37:49;99472.31;;;16.37;56.03
56006;BME280;41888;44.696;10.522;2023-04-15T09:43:00;99468.25;;;16.25;56.77
56006;BME280;41888;44.696;10.522;2023-04-15T09:45:28;99466.16;;;16.42;55.01
56006;BME280;41888;44.696;10.522;2023-04-15T09:47:55;99461.59;;;16.53;56.49
56006;BME280;41888;44.696;10.522;2023-04-15T09:50:22;99461.88;;;16.56;54.95
56006;BME280;41888;44.696;10.522;2023-04-15T09:52:52;99459.50;;;17.05;53.68
56006;BME280;41888;44.696;10.522;2023-04-15T09:55:18;99453.84;;;17.22;51.01
56006;BME280;41888;44.696;10.522;2023-04-15T09:57:45;99443.06;;;17.32;51.20
56006;BME280;41888;44.696;10.522;2023-04-15T10:00:14;99447.06;;;17.29;49.54
56006;BME280;41888;44.696;10.522;2023-04-15T10:02:41;99447.03;;;17.55;51.26
56006;BME280;41888;44.696;10.522;2023-04-15T10:05:11;99439.75;;;17.70;51.15
56006;BME280;41888;44.696;10.522;2023-04-15T10:07:38;99443.00;;;17.47;51.91
56006;BME280;41888;44.696;10.522;2023-04-15T10:10:06;99440.59;;;17.41;52.00
56006;BME280;41888;44.696;10.522;2023-04-15T10:12:32;99440.13;;;17.28;51.17
56006;BME280;41888;44.696;10.522;2023-04-15T10:15:03;99445.50;;;17.23;51.18
56006;BME280;41888;44.696;10.522;2023-04-15T10:17:31;99439.75;;;17.50;53.95
56006;BME280;41888;44.696;10.522;2023-04-15T10:20:03;99437.59;;;17.62;51.87
56006;BME280;41888;44.696;10.522;2023-04-15T10:22:30;99429.78;;;17.76;52.06
56006;BME280;41888;44.696;10.522;2023-04-15T10:24:58;99427.91;;;17.66;52.53
56006;BME280;41888;44.696;10.522;2023-04-15T10:27:27;99432.00;;;17.44;54.07
56006;BME280;41888;44.696;10.522;2023-04-15T10:29:54;99419.97;;;17.95;53.04
56006;BME280;41888;44.696;10.522;2023-04-15T10:32:24;99427.03;;;17.86;52.94
56006;BME280;41888;44.696;10.522;2023-04-15T10:34:51;99429.66;;;17.96;53.57
56006;BME280;41888;44.696;10.522;2023-04-15T10:37:32;99421.22;;;17.49;54.02
56006;BME280;41888;44.696;10.522;2023-04-15T10:39:59;99423.41;;;17.42;53.68
56006;BME280;41888;44.696;10.522;2023-04-15T10:42:33;99414.75;;;17.55;54.42
56006;BME280;41888;44.696;10.522;2023-04-15T10:45:00;99419.78;;;17.82;53.89
56006;BME280;41888;44.696;10.522;2023-04-15T10:47:26;99416.66;;;18.08;53.71
56006;BME280;41888;44.696;10.522;2023-04-15T10:50:01;99413.41;;;18.17;52.40
56006;BME280;41888;44.696;10.522;2023-04-15T10:52:28;99410.03;;;18.40;52.08
56006;BME280;41888;44.696;10.522;2023-04-15T10:55:13;99406.56;;;18.34;50.91
56006;BME280;41888;44.696;10.522;2023-04-15T10:57:44;99407.22;;;17.62;53.01
56006;BME280;41888;44.696;10.522;2023-04-15T11:00:11;99405.91;;;18.08;52.99
56006;BME280;41888;44.696;10.522;2023-04-15T11:02:42;99398.28;;;17.82;52.25
56006;BME280;41888;44.696;10.522;2023-04-15T11:05:09;99406.75;;;17.99;52.70
56006;BME280;41888;44.696;10.522;2023-04-15T11:07:56;99407.00;;;18.07;52.27
56006;BME280;41888;44.696;10.522;2023-04-15T11:13:03;99401.38;;;17.99;52.09
56006;BME280;41888;44.696;10.522;2023-04-15T11:15:36;99391.91;;;18.11;50.59
56006;BME280;41888;44.696;10.522;2023-04-15T11:20:40;99393.41;;;18.28;51.68
56006;BME280;41888;44.696;10.522;2023-04-15T11:23:06;99394.06;;;18.09;51.78
56006;BME280;41888;44.696;10.522;2023-04-15T11:25:34;99387.47;;;18.26;51.73
56006;BME280;41888;44.696;10.522;2023-04-15T11:28:02;99390.91;;;18.75;50.99
56006;BME280;41888;44.696;10.522;2023-04-15T11:30:31;99387.47;;;18.93;50.27
56006;BME280;41888;44.696;10.522;2023-04-15T11:33:00;99394.63;;;19.32;48.63
56006;BME280;41888;44.696;10.522;2023-04-15T11:35:27;99398.19;;;19.27;48.04
56006;BME280;41888;44.696;10.522;2023-04-15T11:37:53;99392.09;;;19.17;47.17
56006;BME280;41888;44.696;10.522;2023-04-15T11:40:25;99385.25;;;18.72;47.17
56006;BME280;41888;44.696;10.522;2023-04-15T11:43:16;99381.88;;;18.56;49.57
56006;BME280;41888;44.696;10.522;2023-04-15T11:45:55;99379.50;;;18.49;49.24
56006;BME280;41888;44.696;10.522;2023-04-15T11:48:24;99374.63;;;18.56;50.70
56006;BME280;41888;44.696;10.522;2023-04-15T11:51:01;99380.63;;;18.43;52.03
56006;BME280;41888;44.696;10.522;2023-04-15T11:56:23;99377.31;;;19.38;47.58
56006;BME280;41888;44.696;10.522;2023-04-15T11:58:54;99379.44;;;19.83;46.37
56006;BME280;41888;44.696;10.522;2023-04-15T12:01:31;99372.78;;;19.57;46.47
56006;BME280;41888;44.696;10.522;2023-04-15T12:03:57;99383.84;;;19.32;46.69
56006;BME280;41888;44.696;10.522;2023-04-15T12:06:31;99381.25;;;19.22;46.83
56006;BME280;41888;44.696;10.522;2023-04-15T12:11:36;99367.81;;;18.64;47.99
56006;BME280;41888;44.696;10.522;2023-04-15T12:14:10;99369.72;;;18.64;47.12
56006;BME280;41888;44.696;10.522;2023-04-15T12:16:40;99375.38;;;18.62;46.01
56006;BME280;41888;44.696;10.522;2023-04-15T12:19:09;99372.25;;;18.50;46.88
56006;BME280;41888;44.696;10.522;2023-04-15T12:21:38;99365.88;;;18.36;47.52
56006;BME280;41888;44.696;10.522;2023-04-15T12:24:07;99359.06;;;18.09;50.60
56006;BME280;41888;44.696;10.522;2023-04-15T12:26:44;99363.47;;;18.34;50.47
56006;BME280;41888;44.696;10.522;2023-04-15T12:29:12;99359.13;;;18.72;49.93
56006;BME280;41888;44.696;10.522;2023-04-15T12:31:52;99365.78;;;18.80;50.01
56006;BME280;41888;44.696;10.522;2023-04-15T12:36:53;99357.31;;;18.63;48.85
56006;BME280;41888;44.696;10.522;2023-04-15T12:39:22;99360.97;;;18.43;46.84
56006;BME280;41888;44.696;10.522;2023-04-15T12:41:49;99358.13;;;17.90;47.72
56006;BME280;41888;44.696;10.522;2023-04-15T12:44:15;99362.28;;;18.11;47.33
56006;BME280;41888;44.696;10.522;2023-04-15T12:46:41;99361.84;;;18.33;46.47
56006;BME280;41888;44.696;10.522;2023-04-15T12:49:08;99361.78;;;18.43;45.98
56006;BME280;41888;44.696;10.522;2023-04-15T12:51:34;99364.25;;;18.35;45.78
56006;BME280;41888;44.696;10.522;2023-04-15T12:54:01;99361.84;;;17.94;45.36
56006;BME280;41888;44.696;10.522;2023-04-15T12:56:27;99359.34;;;18.08;46.65
56006;BME280;41888;44.696;10.522;2023-04-15T12:58:53;99363.13;;;18.41;45.89
56006;BME280;41888;44.696;10.522;2023-04-15T13:01:20;99356.41;;;18.72;44.67
56006;BME280;41888;44.696;10.522;2023-04-15T13:03:46;99364.28;;;18.69;45.92
56006;BME280;41888;44.696;10.522;2023-04-15T13:06:13;99360.53;;;19.41;44.62
56006;BME280;41888;44.696;10.522;2023-04-15T13:08:39;99360.53;;;18.93;45.71
56006;BME280;41888;44.696;10.522;2023-04-15T13:11:05;99355.81;;;18.80;44.85
56006;BME280;41888;44.696;10.522;2023-04-15T13:13:31;99361.59;;;18.97;45.34